Terminal Aerodrome Forecast
Issued by NWS

Home | Current Version | Previous Version | Text Only | Print | Product List | Glossary On
Versions: 1 2 3 4 5 6 7 8 9 10 11 12 13 14 15 16 17 18 19
000
FTUS41 KPBZ 251511 AAA
TAFZZV
TAF AMD
KZZV 251511Z 2515/2612 20008KT P6SM VCSH OVC018
     FM252200 23007KT P6SM -SHRA OVC015
     FM260100 24006KT 3SM -SHRA OVC008
     FM260400 25008KT 3SM -SHRA OVC003=

USA.gov is the U.S. government's official web portal to all federal, state and local government web resources and services.